Gualala, CA (95445)

3:14 PM PDT on August 28, 2015 (GMT -0700)
Dolphin Cove, Gualala | | Change Station
CLOSE
Current Station
Personal Weather Station
Location: Gualala, CA
Elevation: 148 ft
Nearby Weather Stations

Elev 148 ft 38.78 °N, 123.54 °W | Updated 7 minutes ago

Clear
Clear
69.4 °F
Feels Like 69.4 °F
N
2.0
Wind Variable Wind from SSW
Gusts 3.0 mph

Today
High -- | Low -- °F
--% Chance of Precip.
Yesterday
High -- | Low -- °F
Precip. -- in
6:39 AM 7:50 PM
Waxing Gibbous, 99% visible
Pressure 29.82 in
Visibility 10.0 miles
Clouds Clear
Dew Point 63 °F
Humidity 80%
Rainfall 0.00 in
Snow Depth Not available.
UV 8 out of 12
Pollen 6.70 out of 12
Air Quality Not available.
Flu Activity Not available.
METAR KUKI 282156Z AUTO 25012G18KT 10SM CLR 35/07 A2984 RMK AO2 SLP096 T03500072
Pressure 29.82 in
Visibility 10.0 miles
Clouds Clear
Dew Point 63 °F
Humidity 80%
Rainfall 0.00 in
Snow Depth Not available.
UV 8 out of 12
Pollen 6.70 out of 12
Air Quality Not available.
Flu Activity Not available.
METAR KUKI 282156Z AUTO 25012G18KT 10SM CLR 35/07 A2984 RMK AO2 SLP096 T03500072

10-Day Weather Forecast

×

Almanac

Astronomy

Aug. 28, 2015 Rise Set
Actual Time
Civil Twilight
Nautical Twilight
Astronomical Twilight
Moon
Length of Visible Light
Length of Day
Tomorrow will be .
, % of the Moon is Illuminated

Today's Extremes

State Highs State Lows

Community

WunderPhotos

Upload Photos

1,850,515 photos uploaded!

WunderBlogs® & News

Nearby

Air Quality

  Air Quality AQ Index Pollutant
Not available.

Snow Depth

Station Depth Elevation

Earthquake Activity

City Distance Mag. Time & Date
Minimum magnitude displayed is 2.5.

Coastal Water Temperatures

Place Temperature

Stations

Nearby Weather Stations

Station Location Temp. Windchill Dew Point Humidity Wind Precip. Elev Updated Type